createdAt,value
2022-08-03T00:02:54.374Z,24.37
2022-08-03T00:06:04.579Z,24.28
2022-08-03T00:09:11.206Z,24.28
2022-08-03T00:12:16.801Z,24.29
2022-08-03T00:15:22.601Z,24.17
2022-08-03T00:18:29.250Z,24.18
2022-08-03T00:21:34.853Z,24.09
2022-08-03T00:24:40.634Z,23.92
2022-08-03T00:27:46.215Z,23.82
2022-08-03T00:30:56.126Z,23.81
2022-08-03T00:34:03.385Z,23.80
2022-08-03T00:37:09.923Z,23.82
2022-08-03T00:40:17.935Z,23.74
2022-08-03T00:43:28.060Z,23.87
2022-08-03T00:46:33.954Z,23.81
2022-08-03T00:49:41.407Z,23.63
2022-08-03T00:52:47.869Z,23.43
2022-08-03T00:55:53.474Z,23.50
2022-08-03T00:58:59.698Z,23.63
2022-08-03T01:02:05.445Z,23.71
2022-08-03T01:05:11.433Z,23.71
2022-08-03T01:08:31.801Z,23.44
2022-08-03T01:12:00.713Z,23.58
2022-08-03T01:15:43.448Z,23.49
2022-08-03T01:19:03.685Z,23.47
2022-08-03T01:23:01.132Z,23.37
2022-08-03T01:26:12.488Z,23.40
2022-08-03T01:29:17.899Z,23.31
2022-08-03T01:32:58.119Z,23.22
2022-08-03T01:36:11.884Z,23.35
2022-08-03T01:39:19.677Z,23.22
2022-08-03T01:42:27.731Z,23.28
2022-08-03T01:45:34.777Z,23.17
2022-08-03T01:48:43.531Z,23.24
2022-08-03T01:51:58.401Z,23.02
2022-08-03T01:55:12.608Z,22.46
2022-08-03T01:58:22.218Z,22.61
2022-08-03T02:02:31.987Z,22.72
2022-08-03T02:04:58.018Z,22.65
2022-08-03T02:08:05.577Z,22.83
2022-08-03T02:11:12.728Z,22.92
2022-08-03T02:14:20.874Z,22.96
2022-08-03T02:17:39.249Z,22.93
2022-08-03T02:20:47.701Z,22.86
2022-08-03T02:23:53.503Z,22.84
2022-08-03T02:27:00.136Z,22.88
2022-08-03T02:30:11.155Z,22.99
2022-08-03T02:33:27.431Z,23.02
2022-08-03T02:36:38.077Z,23.07
2022-08-03T02:39:45.400Z,22.77
2022-08-03T02:42:55.565Z,22.75
2022-08-03T02:46:01.632Z,22.76
2022-08-03T02:49:49.759Z,22.72
2022-08-03T02:52:36.181Z,22.75
2022-08-03T02:55:45.840Z,22.84
2022-08-03T02:58:53.503Z,22.86
2022-08-03T03:02:00.824Z,22.83
2022-08-03T03:05:52.990Z,22.74
2022-08-03T03:08:34.005Z,22.80
2022-08-03T03:11:41.915Z,22.80
2022-08-03T03:14:47.612Z,22.60
2022-08-03T03:17:54.032Z,22.51
2022-08-03T03:21:01.695Z,22.69
2022-08-03T03:24:09.612Z,22.86
2022-08-03T03:27:16.653Z,22.75
2022-08-03T03:30:22.992Z,22.72
2022-08-03T03:33:28.893Z,22.49
2022-08-03T03:36:34.592Z,22.49
2022-08-03T03:39:40.137Z,22.46
2022-08-03T03:42:46.075Z,22.51
2022-08-03T03:45:54.135Z,22.42
2022-08-03T03:48:59.704Z,22.49
2022-08-03T03:52:05.360Z,22.63
2022-08-03T03:55:11.032Z,22.58
2022-08-03T03:58:17.373Z,22.63
2022-08-03T04:01:23.495Z,22.50
2022-08-03T04:04:47.285Z,22.49
2022-08-03T04:08:19.732Z,22.46
2022-08-03T04:11:32.167Z,22.33
2022-08-03T04:14:39.607Z,22.41
2022-08-03T04:17:47.202Z,22.50
2022-08-03T04:20:54.136Z,22.56
2022-08-03T04:24:03.972Z,22.60
2022-08-03T04:27:13.270Z,22.68
2022-08-03T04:30:19.851Z,22.16
2022-08-03T04:33:29.475Z,22.14
2022-08-03T04:36:48.641Z,22.17
2022-08-03T04:39:58.295Z,22.45
2022-08-03T04:43:05.721Z,22.50
2022-08-03T04:46:12.463Z,22.58
2022-08-03T04:49:20.338Z,22.69
2022-08-03T04:52:26.118Z,22.65
2022-08-03T04:55:32.901Z,22.81
2022-08-03T04:58:38.869Z,23.02
2022-08-03T05:01:44.512Z,23.23
2022-08-03T05:04:50.746Z,23.24
2022-08-03T05:07:56.549Z,23.35
2022-08-03T05:11:02.335Z,23.29
2022-08-03T05:14:07.612Z,23.48
2022-08-03T05:17:13.003Z,23.54
2022-08-03T05:20:18.985Z,23.87
2022-08-03T05:23:24.420Z,24.10
2022-08-03T05:26:29.980Z,24.17
2022-08-03T05:29:35.937Z,24.33
2022-08-03T05:32:41.471Z,24.51
2022-08-03T05:35:55.643Z,24.85
2022-08-03T05:39:09.666Z,24.85
2022-08-03T05:42:17.547Z,25.12
2022-08-03T05:45:28.156Z,24.91
2022-08-03T05:48:33.860Z,25.28
2022-08-03T05:51:39.550Z,25.19
2022-08-03T05:54:56.469Z,25.37
2022-08-03T05:58:04.430Z,25.45
2022-08-03T06:01:10.822Z,25.59
2022-08-03T06:04:16.794Z,25.45
2022-08-03T06:07:22.520Z,25.52
2022-08-03T06:10:37.133Z,25.59
2022-08-03T06:13:44.653Z,25.62
2022-08-03T06:16:50.034Z,25.53
2022-08-03T06:19:55.675Z,25.62
2022-08-03T06:23:01.531Z,25.75
2022-08-03T06:26:07.309Z,25.62
2022-08-03T06:29:13.178Z,25.81
2022-08-03T06:32:19.369Z,25.97
2022-08-03T06:35:28.172Z,26.13
2022-08-03T06:38:33.925Z,26.36
2022-08-03T06:41:44.558Z,26.46
2022-08-03T06:44:51.841Z,26.50
2022-08-03T06:48:05.864Z,26.58
2022-08-03T06:51:11.946Z,26.61
2022-08-03T06:54:18.039Z,26.57
2022-08-03T06:57:23.789Z,26.71
2022-08-03T07:00:29.820Z,26.82
2022-08-03T07:03:35.501Z,26.84
2022-08-03T07:06:41.737Z,26.90
2022-08-03T07:09:56.753Z,26.83
2022-08-03T07:13:05.240Z,26.87
2022-08-03T07:16:10.800Z,26.94
2022-08-03T07:19:16.864Z,26.94
2022-08-03T07:22:22.453Z,27.07
2022-08-03T07:25:28.299Z,27.14
2022-08-03T07:28:34.467Z,27.05
2022-08-03T07:31:40.499Z,27.28
2022-08-03T07:34:46.197Z,27.37
2022-08-03T07:37:54.387Z,27.52
2022-08-03T07:41:00.510Z,27.40
2022-08-03T07:44:06.224Z,27.50
2022-08-03T07:47:22.522Z,27.63
2022-08-03T07:50:28.932Z,27.80
2022-08-03T07:53:37.837Z,27.80
2022-08-03T07:56:53.789Z,27.87
2022-08-03T08:00:02.209Z,28.02
2022-08-03T08:03:17.488Z,28.24
2022-08-03T08:06:23.288Z,28.38
2022-08-03T08:09:28.835Z,28.42
2022-08-03T08:12:35.327Z,28.49
2022-08-03T08:15:43.691Z,28.52
2022-08-03T08:18:49.779Z,28.33
2022-08-03T08:22:02.408Z,28.39
2022-08-03T08:25:08.822Z,28.36
2022-08-03T08:28:31.871Z,28.63
2022-08-03T08:31:39.616Z,28.76
2022-08-03T08:34:45.294Z,29.01
2022-08-03T08:37:51.472Z,29.04
2022-08-03T08:40:57.350Z,29.19
2022-08-03T08:44:04.078Z,29.05
2022-08-03T08:47:10.725Z,29.08
2022-08-03T08:50:27.807Z,28.95
2022-08-03T08:53:37.661Z,29.31
2022-08-03T08:56:45.275Z,29.25
2022-08-03T08:59:53.479Z,29.44
2022-08-03T09:03:03.062Z,29.42
2022-08-03T09:06:08.898Z,29.35
2022-08-03T09:10:08.207Z,29.66
2022-08-03T09:12:45.580Z,29.83
2022-08-03T09:16:11.650Z,29.86
2022-08-03T09:19:17.316Z,29.73
2022-08-03T09:22:22.954Z,29.62
2022-08-03T09:25:40.569Z,29.61
2022-08-03T09:28:59.943Z,29.82
2022-08-03T09:32:11.644Z,29.95
2022-08-03T09:35:23.783Z,29.91
2022-08-03T09:39:01.501Z,30.19
2022-08-03T09:42:18.887Z,30.11
2022-08-03T09:45:30.447Z,29.98
2022-08-03T09:48:38.032Z,29.94
2022-08-03T09:52:31.737Z,30.12
2022-08-03T09:56:30.746Z,30.48
2022-08-03T09:58:47.692Z,30.46
2022-08-03T10:01:54.503Z,30.40
2022-08-03T10:05:00.267Z,30.24
2022-08-03T10:08:15.679Z,30.37
2022-08-03T10:11:40.851Z,30.48
2022-08-03T10:14:47.384Z,30.25
2022-08-03T10:17:52.783Z,30.43
2022-08-03T10:21:08.978Z,30.37
2022-08-03T10:24:17.526Z,30.34
2022-08-03T10:27:24.925Z,30.21
2022-08-03T10:30:32.711Z,30.19
2022-08-03T10:33:51.719Z,30.27
2022-08-03T10:37:00.421Z,30.44
2022-08-03T10:40:08.844Z,30.58
2022-08-03T10:43:20.199Z,30.72
2022-08-03T10:46:28.062Z,30.91
2022-08-03T10:49:35.638Z,30.53
2022-08-03T10:53:39.376Z,30.61
2022-08-03T10:57:13.638Z,30.94
2022-08-03T11:00:26.240Z,31.01
2022-08-03T11:03:33.185Z,31.26
2022-08-03T11:06:38.841Z,31.22
2022-08-03T11:09:49.384Z,31.33
2022-08-03T11:13:07.716Z,31.35
2022-08-03T11:16:22.458Z,31.37
2022-08-03T11:19:57.880Z,31.40
2022-08-03T11:23:04.281Z,31.54
2022-08-03T11:26:13.567Z,31.28
2022-08-03T11:29:29.864Z,31.25
2022-08-03T11:32:38.655Z,31.24
2022-08-03T11:36:04.452Z,31.40
2022-08-03T11:39:16.666Z,31.47
2022-08-03T11:42:22.603Z,31.33
2022-08-03T11:45:28.324Z,31.48
2022-08-03T11:48:38.405Z,31.56
2022-08-03T11:51:44.986Z,31.51
2022-08-03T11:54:56.626Z,31.48
2022-08-03T11:59:12.868Z,31.52
2022-08-03T12:01:28.323Z,31.74
2022-08-03T12:04:54.839Z,31.82
2022-08-03T12:08:04.964Z,31.68
2022-08-03T12:11:14.122Z,31.87
2022-08-03T12:14:49.164Z,31.73
2022-08-03T12:17:45.920Z,31.74
2022-08-03T12:20:54.820Z,31.63
2022-08-03T12:24:02.574Z,31.87
2022-08-03T12:27:07.870Z,31.90
2022-08-03T12:30:13.803Z,31.79
2022-08-03T12:33:27.639Z,31.65
2022-08-03T12:36:35.556Z,31.57
2022-08-03T12:40:01.722Z,31.85
2022-08-03T12:43:16.310Z,31.96
2022-08-03T12:46:21.563Z,32.14
2022-08-03T12:49:30.356Z,32.33
2022-08-03T12:52:45.286Z,32.43
2022-08-03T12:56:05.025Z,32.36
2022-08-03T12:59:25.447Z,32.59
2022-08-03T13:02:38.498Z,32.45
2022-08-03T13:05:46.118Z,32.73
2022-08-03T13:09:12.149Z,32.61
2022-08-03T13:12:20.915Z,32.47
2022-08-03T13:15:28.463Z,32.52
2022-08-03T13:18:40.067Z,32.44
2022-08-03T13:21:53.577Z,32.64
2022-08-03T13:25:09.902Z,32.66
2022-08-03T13:28:15.415Z,32.64
2022-08-03T13:31:21.598Z,32.80
2022-08-03T13:34:27.327Z,32.47
2022-08-03T13:37:32.927Z,32.72
2022-08-03T13:40:41.639Z,32.89
2022-08-03T13:43:47.304Z,32.77
2022-08-03T13:46:52.899Z,32.71
2022-08-03T13:50:01.914Z,32.50
2022-08-03T13:53:08.231Z,32.92
2022-08-03T13:56:13.575Z,32.84
2022-08-03T13:59:20.660Z,33.00
2022-08-03T14:02:26.623Z,32.99
2022-08-03T14:05:32.532Z,33.14
2022-08-03T14:08:38.290Z,33.19
2022-08-03T14:12:05.232Z,33.21
2022-08-03T14:15:13.336Z,33.15
2022-08-03T14:18:28.915Z,33.21
2022-08-03T14:21:39.577Z,33.14
2022-08-03T14:24:45.421Z,33.23
2022-08-03T14:27:51.625Z,33.23
2022-08-03T14:30:57.471Z,33.41
2022-08-03T14:34:03.174Z,33.42
2022-08-03T14:37:08.924Z,33.06
2022-08-03T14:40:14.432Z,33.47
2022-08-03T14:43:22.972Z,33.37
2022-08-03T14:46:28.615Z,33.46
2022-08-03T14:50:36.345Z,33.57
2022-08-03T14:52:59.805Z,33.53
2022-08-03T14:56:11.167Z,33.35
2022-08-03T14:59:16.935Z,33.15
2022-08-03T15:02:23.785Z,33.33
2022-08-03T15:05:29.906Z,33.29
2022-08-03T15:08:35.558Z,33.59
2022-08-03T15:11:41.858Z,33.49
2022-08-03T15:14:47.550Z,33.41
2022-08-03T15:17:59.717Z,33.49
2022-08-03T15:21:07.135Z,33.62
2022-08-03T15:24:26.832Z,33.68
2022-08-03T15:27:32.732Z,33.48
2022-08-03T15:30:38.856Z,33.51
2022-08-03T15:33:44.601Z,33.48
2022-08-03T15:36:50.250Z,33.48
2022-08-03T15:39:58.163Z,33.42
2022-08-03T15:43:05.805Z,33.46
2022-08-03T15:49:37.289Z,33.64
2022-08-03T15:52:42.930Z,33.45
2022-08-03T15:55:48.503Z,33.70
2022-08-03T15:59:09.239Z,33.66
2022-08-03T16:02:19.807Z,33.70
2022-08-03T16:05:25.315Z,33.86
2022-08-03T16:08:31.696Z,33.86
2022-08-03T16:11:37.123Z,33.74
2022-08-03T16:14:51.888Z,33.63
2022-08-03T16:17:59.103Z,33.73
2022-08-03T16:21:04.874Z,33.74
2022-08-03T16:24:17.341Z,33.73
2022-08-03T16:27:58.161Z,33.72
2022-08-03T16:30:58.994Z,33.75
2022-08-03T16:34:04.959Z,33.85
2022-08-03T16:37:36.521Z,33.82
2022-08-03T16:40:37.577Z,33.69
2022-08-03T16:43:43.130Z,33.52
2022-08-03T16:46:49.038Z,33.56
2022-08-03T16:49:56.550Z,33.46
2022-08-03T16:53:09.080Z,33.17
2022-08-03T16:56:15.111Z,33.27
2022-08-03T16:59:20.149Z,33.13
2022-08-03T17:02:48.374Z,33.44
2022-08-03T17:05:54.269Z,33.19
2022-08-03T17:09:11.511Z,32.92
2022-08-03T17:12:17.256Z,32.67
2022-08-03T17:15:38.384Z,32.30
2022-08-03T17:18:57.125Z,32.04
2022-08-03T17:22:13.465Z,31.92
2022-08-03T17:26:01.736Z,31.86
2022-08-03T17:28:57.438Z,31.66
2022-08-03T17:32:09.244Z,31.50
2022-08-03T17:35:15.809Z,31.50
2022-08-03T17:38:26.755Z,31.53
2022-08-03T17:41:38.383Z,31.35
2022-08-03T17:44:58.072Z,31.20
2022-08-03T17:48:04.639Z,31.22
2022-08-03T17:51:24.360Z,31.02
2022-08-03T17:55:57.601Z,30.91
2022-08-03T17:58:25.922Z,30.88
2022-08-03T18:02:22.290Z,30.66
2022-08-03T18:06:10.956Z,30.68
2022-08-03T18:09:05.131Z,30.50
2022-08-03T18:12:34.947Z,30.51
2022-08-03T18:15:47.644Z,30.57
2022-08-03T18:18:57.371Z,30.44
2022-08-03T18:22:05.231Z,30.34
2022-08-03T18:25:11.096Z,30.32
2022-08-03T18:32:02.244Z,30.17
2022-08-03T18:35:13.753Z,29.98
2022-08-03T18:38:20.897Z,29.93
2022-08-03T18:41:32.257Z,29.86
2022-08-03T18:44:54.095Z,29.86
2022-08-03T18:48:32.815Z,29.80
2022-08-03T18:51:42.960Z,29.74
2022-08-03T18:55:20.980Z,29.67
2022-08-03T18:58:52.550Z,29.58
2022-08-03T19:02:05.869Z,29.46
2022-08-03T19:05:19.566Z,29.37
2022-08-03T19:08:49.679Z,29.47
2022-08-03T19:12:28.316Z,29.51
2022-08-03T19:15:36.567Z,29.40
2022-08-03T19:18:52.062Z,29.32
2022-08-03T19:21:58.692Z,29.21
2022-08-03T19:25:07.126Z,29.20
2022-08-03T19:28:18.535Z,29.12
2022-08-03T19:31:31.220Z,28.98
2022-08-03T19:34:40.935Z,29.00
2022-08-03T19:37:52.901Z,29.04
2022-08-03T19:41:03.762Z,29.05
2022-08-03T19:44:19.993Z,28.94
2022-08-03T19:47:34.182Z,29.01
2022-08-03T19:50:44.377Z,28.84
2022-08-03T19:53:52.397Z,28.89
2022-08-03T19:57:01.907Z,28.87
2022-08-03T20:00:12.641Z,28.76
2022-08-03T20:03:21.900Z,28.70
2022-08-03T20:06:29.274Z,28.77
2022-08-03T20:09:36.325Z,28.67
2022-08-03T20:12:50.650Z,28.63
2022-08-03T20:15:56.598Z,28.58
2022-08-03T20:19:02.701Z,28.61
2022-08-03T20:22:27.847Z,28.58
2022-08-03T20:25:39.540Z,28.50
2022-08-03T20:29:10.000Z,28.47
2022-08-03T20:32:18.226Z,28.42
2022-08-03T20:35:23.575Z,28.41
2022-08-03T20:38:29.135Z,28.28
2022-08-03T20:41:35.965Z,28.16
2022-08-03T20:44:42.037Z,28.03
2022-08-03T20:47:54.265Z,27.93
2022-08-03T20:50:59.986Z,27.88
2022-08-03T20:54:22.719Z,27.96
2022-08-03T20:57:33.515Z,27.93
2022-08-03T21:00:38.925Z,27.88
2022-08-03T21:03:55.505Z,27.74
2022-08-03T21:07:16.628Z,27.51
2022-08-03T21:10:28.610Z,27.11
2022-08-03T21:13:04.889Z,30.22
2022-08-03T21:13:52.390Z,26.82
2022-08-03T21:16:59.385Z,26.84
2022-08-03T21:20:11.244Z,27.02
2022-08-03T21:23:40.008Z,26.64
2022-08-03T21:26:49.748Z,26.79
2022-08-03T21:29:55.316Z,26.88
2022-08-03T21:33:01.299Z,26.80
2022-08-03T21:36:07.795Z,26.73
2022-08-03T21:39:13.428Z,26.56
2022-08-03T21:42:20.516Z,26.36
2022-08-03T21:45:25.989Z,26.59
2022-08-03T21:48:41.899Z,26.50
2022-08-03T21:51:50.117Z,26.53
2022-08-03T21:54:59.037Z,26.50
2022-08-03T21:58:06.239Z,26.42
2022-08-03T22:01:13.979Z,26.44
2022-08-03T22:04:55.248Z,26.66
2022-08-03T22:07:47.780Z,26.52
2022-08-03T22:10:53.157Z,26.47
2022-08-03T22:14:02.116Z,26.30
2022-08-03T22:17:08.071Z,26.51
2022-08-03T22:20:15.321Z,26.61
2022-08-03T22:23:23.943Z,26.47
2022-08-03T22:26:35.365Z,26.44
2022-08-03T22:29:43.681Z,26.46
2022-08-03T22:32:53.550Z,26.53
2022-08-03T22:36:00.644Z,26.55
2022-08-03T22:39:06.421Z,26.42
2022-08-03T22:42:13.358Z,26.36
2022-08-03T22:46:07.945Z,26.24
2022-08-03T22:48:48.369Z,26.28
2022-08-03T22:51:54.656Z,26.21
2022-08-03T22:55:05.355Z,26.16
2022-08-03T22:58:10.813Z,26.06
2022-08-03T23:01:21.022Z,26.00
2022-08-03T23:04:29.297Z,26.06
2022-08-03T23:07:38.614Z,26.12
2022-08-03T23:10:47.697Z,26.18
2022-08-03T23:13:56.127Z,26.08
2022-08-03T23:17:04.931Z,26.14
2022-08-03T23:20:10.766Z,25.97
2022-08-03T23:23:16.682Z,26.08
2022-08-03T23:26:26.617Z,26.04
2022-08-03T23:29:36.529Z,25.87
2022-08-03T23:32:43.816Z,25.94
2022-08-03T23:36:20.177Z,25.90
2022-08-03T23:39:29.067Z,25.83
2022-08-03T23:42:43.074Z,25.71
2022-08-03T23:45:49.819Z,25.68
2022-08-03T23:49:00.137Z,25.62
2022-08-03T23:52:14.785Z,25.56
2022-08-03T23:55:43.330Z,25.58
2022-08-03T23:59:21.993Z,25.39
